Chillan, General Bernardo O`Higgins Airport (SCCH)

NameGeneral Bernardo O`Higgins Airport
CityChillan
CountryChile
ICAOSCCH
IATAYAI
Altitude151 m
CoordinatesGoogle Map
Live Air TrafficLiveATC.net
METARSCCH 242200Z 36002KT 9999 BKN030 05/05 Q1022
2019-06-24 22:00:00 Wind: North (360°) 1.03 m/s - Visibility: > 10000 m - Temperature: 5 °C - Dew point: 5 °C - Humidity: 100% - Pressure: 1022 hPa

Sorry, no flights used the airport in this database.